Terminal Aerodrome Forecast
Issued by NWS

Home | Current Version | Previous Version | Text Only | Print | Product List | Glossary On
Versions: 1 2 3 4 5 6 7 8 9 10 11 12 13
000
FTUS45 KRIW 261100
TAFLND
TAF
KLND 261139Z 2612/2712 VRB05KT 3SM -SN SCT010 BKN030
     FM261500 33006KT 6SM -SN BKN035
     FM262100 28006KT P6SM SCT035 BKN090
     FM270900 VRB04KT P6SM VCFG FEW004 SCT090=

USA.gov is the U.S. government's official web portal to all federal, state and local government web resources and services.